createdAt,value
2017-09-08T00:04:13.074Z,12.40
2017-09-08T00:09:16.830Z,12.30
2017-09-08T00:14:21.036Z,12.30
2017-09-08T00:19:25.383Z,12.30
2017-09-08T00:24:28.275Z,12.20
2017-09-08T00:29:31.697Z,12.20
2017-09-08T00:34:36.073Z,12.10
2017-09-08T00:39:39.069Z,12.10
2017-09-08T00:44:43.304Z,12.00
2017-09-08T00:49:46.257Z,12.00
2017-09-08T00:54:48.870Z,11.90
2017-09-08T00:59:52.267Z,11.80
2017-09-08T01:04:56.664Z,11.80
2017-09-08T01:10:00.917Z,11.70
2017-09-08T01:15:07.715Z,11.70
2017-09-08T01:20:11.152Z,11.60
2017-09-08T01:30:22.465Z,11.60
2017-09-08T01:35:26.675Z,11.50
2017-09-08T01:40:29.334Z,11.50
2017-09-08T01:45:32.822Z,11.50
2017-09-08T01:50:37.026Z,11.40
2017-09-08T01:55:41.292Z,11.40
2017-09-08T02:00:44.250Z,11.30
2017-09-08T02:05:48.580Z,11.30
2017-09-08T02:10:51.943Z,11.30
2017-09-08T02:15:54.856Z,11.20
2017-09-08T02:20:57.621Z,11.20
2017-09-08T02:26:00.329Z,11.10
2017-09-08T02:31:03.314Z,11.10
2017-09-08T02:36:06.276Z,11.10
2017-09-08T02:41:09.187Z,11.10
2017-09-08T02:46:13.482Z,11.00
2017-09-08T02:51:16.908Z,11.00
2017-09-08T02:56:20.317Z,10.90
2017-09-08T03:01:23.829Z,10.90
2017-09-08T03:06:26.565Z,10.90
2017-09-08T03:11:30.858Z,10.80
2017-09-08T03:16:33.785Z,10.80
2017-09-08T03:21:36.958Z,10.80
2017-09-08T03:26:41.420Z,10.70
2017-09-08T03:31:44.808Z,10.70
2017-09-08T03:36:47.980Z,10.70
2017-09-08T03:41:51.446Z,10.60
2017-09-08T03:46:54.363Z,10.60
2017-09-08T03:51:56.970Z,10.60
2017-09-08T03:56:59.904Z,10.60
2017-09-08T04:02:02.605Z,10.50
2017-09-08T04:07:06.191Z,10.50
2017-09-08T04:12:09.594Z,10.40
2017-09-08T04:17:12.223Z,10.40
2017-09-08T04:22:15.181Z,10.40
2017-09-08T04:32:24.690Z,10.30
2017-09-08T04:37:28.917Z,10.30
2017-09-08T04:42:33.309Z,10.30
2017-09-08T04:47:36.783Z,10.30
2017-09-08T04:52:41.121Z,10.30
2017-09-08T04:57:44.108Z,10.30
2017-09-08T05:02:48.345Z,10.30
2017-09-08T05:07:52.050Z,10.30
2017-09-08T05:12:55.560Z,10.30
2017-09-08T05:17:58.995Z,10.30
2017-09-08T05:23:02.536Z,10.30
2017-09-08T05:28:05.297Z,10.30
2017-09-08T05:33:08.250Z,10.40
2017-09-08T05:38:11.841Z,10.40
2017-09-08T05:48:22.413Z,10.50
2017-09-08T05:53:25.913Z,10.60
2017-09-08T05:58:32.188Z,10.70
2017-09-08T06:03:35.859Z,10.80
2017-09-08T06:13:45.460Z,11.00
2017-09-08T06:18:50.180Z,11.20
2017-09-08T06:23:54.831Z,11.30
2017-09-08T06:28:59.580Z,11.40
2017-09-08T06:34:03.042Z,11.60
2017-09-08T06:39:06.517Z,11.70
2017-09-08T06:44:10.742Z,12.00
2017-09-08T06:49:15.628Z,12.00
2017-09-08T06:54:19.669Z,12.10
2017-09-08T06:59:22.357Z,12.20
2017-09-08T07:04:28.599Z,12.30
2017-09-08T07:09:31.387Z,12.50
2017-09-08T07:14:34.601Z,12.60
2017-09-08T07:19:38.218Z,12.80
2017-09-08T07:24:45.271Z,13.20
2017-09-08T07:29:48.803Z,13.20
2017-09-08T07:34:51.840Z,13.40
2017-09-08T07:39:55.391Z,13.60
2017-09-08T07:44:58.996Z,13.80
2017-09-08T07:50:02.999Z,14.00
2017-09-08T07:55:07.009Z,14.30
2017-09-08T08:00:10.115Z,14.60
2017-09-08T08:05:13.800Z,15.00
2017-09-08T08:10:16.634Z,15.30
2017-09-08T08:15:21.110Z,15.70
2017-09-08T08:20:24.261Z,16.00
2017-09-08T08:25:28.868Z,16.40
2017-09-08T08:30:33.494Z,16.80
2017-09-08T08:35:37.031Z,17.10
2017-09-08T08:40:39.767Z,17.40
2017-09-08T08:45:44.190Z,17.70
2017-09-08T08:50:47.802Z,18.00
2017-09-08T08:55:51.018Z,18.30
2017-09-08T09:00:54.680Z,18.60
2017-09-08T09:05:58.258Z,19.00
2017-09-08T09:11:01.913Z,19.20
2017-09-08T09:16:04.740Z,19.50
2017-09-08T09:21:07.471Z,19.80
2017-09-08T09:26:10.633Z,20.10
2017-09-08T09:31:13.412Z,20.40
2017-09-08T09:36:16.525Z,20.60
2017-09-08T09:41:19.996Z,20.90
2017-09-08T09:46:22.792Z,21.10
2017-09-08T09:51:27.447Z,21.40
2017-09-08T09:56:31.225Z,21.60
2017-09-08T10:01:34.325Z,21.70
2017-09-08T10:06:37.465Z,21.80
2017-09-08T10:11:41.046Z,22.10
2017-09-08T10:16:44.212Z,22.00
2017-09-08T10:21:48.840Z,22.10
2017-09-08T10:26:52.277Z,22.40
2017-09-08T10:31:55.794Z,22.50
2017-09-08T10:42:05.647Z,22.40
2017-09-08T10:47:10.396Z,22.40
2017-09-08T10:52:15.106Z,22.40
2017-09-08T10:57:17.916Z,22.30
2017-09-08T11:02:22.648Z,22.30
2017-09-08T11:07:27.829Z,22.20
2017-09-08T11:12:31.222Z,22.20
2017-09-08T11:17:35.526Z,22.20
2017-09-08T11:22:40.038Z,22.20
2017-09-08T11:27:44.463Z,22.10
2017-09-08T11:32:53.816Z,22.00
2017-09-08T11:37:58.446Z,22.00
2017-09-08T11:43:01.492Z,22.00
2017-09-08T11:48:04.593Z,22.00
2017-09-08T11:53:08.356Z,22.10
2017-09-08T11:58:12.734Z,22.20
2017-09-08T12:03:16.689Z,22.30
2017-09-08T12:08:20.091Z,22.40
2017-09-08T12:13:22.960Z,22.50
2017-09-08T12:18:27.712Z,22.70
2017-09-08T12:23:30.688Z,22.70
2017-09-08T12:28:33.506Z,22.80
2017-09-08T12:38:43.222Z,22.70
2017-09-08T12:43:46.897Z,22.60
2017-09-08T12:48:49.877Z,22.60
2017-09-08T12:53:52.731Z,22.50
2017-09-08T12:58:57.128Z,22.60
2017-09-08T13:04:01.496Z,22.70
2017-09-08T13:09:04.543Z,22.70
2017-09-08T13:14:09.016Z,22.80
2017-09-08T13:19:12.078Z,22.90
2017-09-08T13:24:15.854Z,22.90
2017-09-08T13:29:18.563Z,22.90
2017-09-08T13:39:29.011Z,22.90
2017-09-08T13:44:32.203Z,22.90
2017-09-08T13:49:35.678Z,23.00
2017-09-08T13:54:38.777Z,23.00
2017-09-08T13:59:43.304Z,22.90
2017-09-08T14:04:46.860Z,22.80
2017-09-08T14:09:49.947Z,22.80
2017-09-08T14:14:52.733Z,22.70
2017-09-08T14:19:57.751Z,22.60
2017-09-08T14:25:00.981Z,22.60
2017-09-08T14:30:03.807Z,22.50
2017-09-08T14:40:32.485Z,22.40
2017-09-08T14:51:05.810Z,22.50
2017-09-08T14:56:14.234Z,22.40
2017-09-08T15:01:23.778Z,22.40
2017-09-08T15:06:26.526Z,22.40
2017-09-08T15:11:29.142Z,22.30
2017-09-08T15:16:31.747Z,22.30
2017-09-08T15:21:34.390Z,22.30
2017-09-08T15:26:37.001Z,22.20
2017-09-08T15:31:39.601Z,22.10
2017-09-08T15:36:42.220Z,22.10
2017-09-08T15:41:44.902Z,22.00
2017-09-08T15:46:47.582Z,21.90
2017-09-08T15:51:50.192Z,21.90
2017-09-08T15:56:52.850Z,21.80
2017-09-08T16:01:55.530Z,21.70
2017-09-08T16:06:58.188Z,21.70
2017-09-08T16:12:00.822Z,21.60
2017-09-08T16:17:03.450Z,21.50
2017-09-08T16:22:06.082Z,21.40
2017-09-08T16:27:08.692Z,21.40
2017-09-08T16:32:11.299Z,21.30
2017-09-08T16:37:13.968Z,21.20
2017-09-08T16:42:16.595Z,21.10
2017-09-08T16:47:19.244Z,21.00
2017-09-08T16:52:21.875Z,20.90
2017-09-08T16:57:24.485Z,20.80
2017-09-08T17:02:27.217Z,20.70
2017-09-08T17:07:29.852Z,20.60
2017-09-08T17:12:32.448Z,20.50
2017-09-08T17:17:35.846Z,20.30
2017-09-08T17:27:53.769Z,20.20
2017-09-08T17:32:56.479Z,20.10
2017-09-08T17:37:59.435Z,20.00
2017-09-08T17:43:02.398Z,19.80
2017-09-08T17:48:05.192Z,19.70
2017-09-08T17:53:07.937Z,19.60
2017-09-08T17:58:11.484Z,19.30
2017-09-08T18:03:14.376Z,19.30
2017-09-08T18:08:17.026Z,19.20
2017-09-08T18:13:20.045Z,19.10
2017-09-08T18:18:23.696Z,18.90
2017-09-08T18:23:28.577Z,18.80
2017-09-08T18:28:31.607Z,18.70
2017-09-08T18:33:38.043Z,18.50
2017-09-08T18:38:41.419Z,18.40
2017-09-08T18:43:46.656Z,18.30
2017-09-08T18:48:49.534Z,18.20
2017-09-08T18:53:52.306Z,18.00
2017-09-08T18:58:56.799Z,17.90
2017-09-08T19:04:00.269Z,17.80
2017-09-08T19:09:03.512Z,17.70
2017-09-08T19:14:06.517Z,17.60
2017-09-08T19:19:11.782Z,17.40
2017-09-08T19:24:15.211Z,17.20
2017-09-08T19:29:19.522Z,17.20
2017-09-08T19:34:24.448Z,17.00
2017-09-08T19:39:28.023Z,17.00
2017-09-08T19:44:32.557Z,16.90
2017-09-08T19:49:36.056Z,16.80
2017-09-08T19:54:40.594Z,16.70
2017-09-08T19:59:45.304Z,16.60
2017-09-08T20:04:48.009Z,16.50
2017-09-08T20:09:50.881Z,16.40
2017-09-08T20:14:53.852Z,16.30
2017-09-08T20:19:56.855Z,16.30
2017-09-08T20:25:00.228Z,16.20
2017-09-08T20:30:04.788Z,16.10
2017-09-08T20:35:07.907Z,16.00
2017-09-08T20:40:10.779Z,15.90
2017-09-08T20:45:13.667Z,15.80
2017-09-08T20:50:17.953Z,15.70
2017-09-08T20:55:20.681Z,15.70
2017-09-08T21:00:23.698Z,15.60
2017-09-08T21:05:27.116Z,15.50
2017-09-08T21:10:29.909Z,15.50
2017-09-08T21:15:33.710Z,15.30
2017-09-08T21:20:37.146Z,15.30
2017-09-08T21:25:41.623Z,15.20
2017-09-08T21:30:45.147Z,15.20
2017-09-08T21:35:47.899Z,15.10
2017-09-08T21:40:52.314Z,15.00
2017-09-08T21:45:55.798Z,14.90
2017-09-08T21:56:06.710Z,14.80
2017-09-08T22:01:09.318Z,14.70
2017-09-08T22:06:11.922Z,14.70
2017-09-08T22:11:14.534Z,14.60
2017-09-08T22:16:17.145Z,14.60
2017-09-08T22:21:19.758Z,14.50
2017-09-08T22:26:22.360Z,14.40
2017-09-08T22:31:24.985Z,14.40
2017-09-08T22:36:27.605Z,14.30
2017-09-08T22:41:30.227Z,14.30
2017-09-08T22:46:32.864Z,14.20
2017-09-08T22:51:35.462Z,14.20
2017-09-08T22:56:38.102Z,14.10
2017-09-08T23:01:40.762Z,14.10
2017-09-08T23:06:43.395Z,14.00
2017-09-08T23:11:46.767Z,14.00
2017-09-08T23:16:49.357Z,14.00
2017-09-08T23:21:51.967Z,13.90
2017-09-08T23:26:54.571Z,13.90
2017-09-08T23:31:57.205Z,13.90
2017-09-08T23:36:59.793Z,13.80
2017-09-08T23:42:02.421Z,13.80
2017-09-08T23:47:05.045Z,13.70
2017-09-08T23:52:08.421Z,13.70
2017-09-08T23:57:11.005Z,13.60
